createdAt,value
2023-03-12T00:00:20.277Z,63958.41
2023-03-12T00:02:47.456Z,63958.41
2023-03-12T00:05:14.531Z,63958.41
2023-03-12T00:07:41.650Z,63958.41
2023-03-12T00:10:09.410Z,63958.41
2023-03-12T00:12:36.517Z,63958.41
2023-03-12T00:15:04.490Z,63958.41
2023-03-12T00:17:31.616Z,63958.41
2023-03-12T00:19:58.883Z,63958.41
2023-03-12T00:22:26.435Z,63958.41
2023-03-12T00:24:55.893Z,63958.41
2023-03-12T00:27:24.160Z,63958.41
2023-03-12T00:29:51.387Z,63958.41
2023-03-12T00:32:18.693Z,63958.41
2023-03-12T00:34:54.661Z,63958.41
2023-03-12T00:37:22.352Z,63958.41
2023-03-12T00:39:49.436Z,63958.41
2023-03-12T00:42:17.042Z,63958.41
2023-03-12T00:44:44.493Z,63958.41
2023-03-12T00:47:13.115Z,63958.41
2023-03-12T00:49:40.632Z,63958.41
2023-03-12T00:52:08.082Z,63958.41
2023-03-12T00:54:35.322Z,63958.41
2023-03-12T00:57:02.519Z,63958.41
2023-03-12T00:59:29.742Z,63958.41
2023-03-12T01:01:56.908Z,63958.41
2023-03-12T01:04:24.286Z,63958.41
2023-03-12T01:06:51.451Z,63958.41
2023-03-12T01:09:18.906Z,63958.41
2023-03-12T01:11:46.037Z,63958.41
2023-03-12T01:14:13.140Z,63958.41
2023-03-12T01:16:40.348Z,63958.41
2023-03-12T01:19:07.470Z,63958.41
2023-03-12T01:21:34.541Z,63958.41
2023-03-12T01:24:01.596Z,63958.41
2023-03-12T01:26:28.873Z,63958.41
2023-03-12T01:28:56.002Z,63958.41
2023-03-12T01:31:23.294Z,63958.41
2023-03-12T01:33:52.212Z,63958.41
2023-03-12T01:36:25.358Z,63958.41
2023-03-12T01:38:56.236Z,63958.41
2023-03-12T01:41:26.382Z,63958.41
2023-03-12T01:43:56.617Z,63958.41
2023-03-12T01:46:33.636Z,63958.41
2023-03-12T01:49:11.074Z,63958.41
2023-03-12T01:51:44.896Z,63958.41
2023-03-12T01:54:30.580Z,63958.41
2023-03-12T01:56:58.490Z,63958.41
2023-03-12T01:59:37.408Z,63958.41
2023-03-12T02:02:06.775Z,63958.41
2023-03-12T02:04:34.905Z,63958.41
2023-03-12T02:07:13.836Z,63958.41
2023-03-12T02:09:44.441Z,63958.41
2023-03-12T02:12:12.304Z,63958.41
2023-03-12T02:14:39.922Z,63958.41
2023-03-12T02:17:08.485Z,63958.41
2023-03-12T02:19:52.362Z,63958.41
2023-03-12T02:22:21.139Z,63958.41
2023-03-12T02:25:04.788Z,63958.41
2023-03-12T02:27:34.225Z,63958.41
2023-03-12T02:30:03.091Z,63958.41
2023-03-12T02:32:38.528Z,63958.41
2023-03-12T02:35:07.002Z,63958.41
2023-03-12T02:37:34.131Z,63958.41
2023-03-12T02:40:18.326Z,63958.41
2023-03-12T02:42:46.109Z,63958.41
2023-03-12T02:45:13.400Z,63958.41
2023-03-12T02:47:40.602Z,63958.41
2023-03-12T02:50:08.560Z,63958.41
2023-03-12T02:52:37.431Z,63958.41
2023-03-12T02:55:06.054Z,63958.41
2023-03-12T02:57:33.796Z,63958.41
2023-03-12T03:00:00.948Z,63958.41
2023-03-12T03:02:29.037Z,63958.41
2023-03-12T03:04:56.415Z,63958.41
2023-03-12T03:07:23.574Z,63958.41
2023-03-12T03:09:50.728Z,63958.41
2023-03-12T03:12:17.870Z,63958.41
2023-03-12T03:14:45.111Z,63958.41
2023-03-12T03:17:12.176Z,63958.41
2023-03-12T03:19:39.272Z,63958.41
2023-03-12T03:22:07.000Z,63958.41
2023-03-12T03:24:36.298Z,63958.41
2023-03-12T03:27:03.547Z,63958.41
2023-03-12T03:29:30.726Z,63958.41
2023-03-12T03:31:58.578Z,63958.41
2023-03-12T03:34:26.041Z,63958.41
2023-03-12T03:36:53.390Z,63958.41
2023-03-12T03:39:21.193Z,63958.41
2023-03-12T03:41:48.568Z,63958.41
2023-03-12T03:44:19.255Z,63958.41
2023-03-12T03:46:48.144Z,63958.41
2023-03-12T03:49:16.914Z,63958.41
2023-03-12T03:51:44.338Z,63958.41
2023-03-12T03:54:14.718Z,63958.41
2023-03-12T03:56:43.402Z,63958.41
2023-03-12T03:59:11.526Z,63958.41
2023-03-12T04:01:40.564Z,63958.41
2023-03-12T04:04:07.662Z,63958.41
2023-03-12T04:06:36.494Z,63958.41
2023-03-12T04:09:04.496Z,63958.41
2023-03-12T04:11:33.666Z,63958.41
2023-03-12T04:14:02.015Z,63958.41
2023-03-12T04:16:32.141Z,63958.41
2023-03-12T04:18:59.657Z,63958.41
2023-03-12T04:21:27.625Z,63958.41
2023-03-12T04:23:54.788Z,63958.41
2023-03-12T04:26:25.548Z,63958.41
2023-03-12T04:28:53.931Z,63958.41
2023-03-12T04:31:21.371Z,63958.41
2023-03-12T04:33:52.555Z,63958.41
2023-03-12T04:36:22.608Z,63958.41
2023-03-12T04:38:51.288Z,63958.41
2023-03-12T04:41:23.197Z,63958.41
2023-03-12T04:43:56.282Z,63958.41
2023-03-12T04:46:23.629Z,63958.41
2023-03-12T04:48:51.156Z,63958.41
2023-03-12T04:51:18.717Z,63958.41
2023-03-12T04:53:45.904Z,63958.41
2023-03-12T04:56:14.267Z,63958.41
2023-03-12T04:58:42.885Z,63958.41
2023-03-12T05:01:22.512Z,63958.41
2023-03-12T05:03:50.256Z,63958.41
2023-03-12T05:06:17.644Z,63958.41
2023-03-12T05:08:44.887Z,63958.41
2023-03-12T05:11:12.887Z,63958.41
2023-03-12T05:13:40.167Z,63958.41
2023-03-12T05:16:08.270Z,63958.41
2023-03-12T05:18:35.926Z,63958.41
2023-03-12T05:21:07.343Z,63958.41
2023-03-12T05:23:36.032Z,63958.41
2023-03-12T05:26:03.260Z,63958.41
2023-03-12T05:28:30.874Z,63958.41
2023-03-12T05:31:10.612Z,63958.41
2023-03-12T05:33:38.391Z,63958.41
2023-03-12T05:36:06.078Z,63958.41
2023-03-12T05:38:34.913Z,63958.41
2023-03-12T05:41:04.209Z,63958.41
2023-03-12T05:43:34.445Z,63958.41
2023-03-12T05:46:04.127Z,63958.41
2023-03-12T05:48:32.608Z,63958.41
2023-03-12T05:51:00.542Z,63958.41
2023-03-12T05:53:28.019Z,63958.41
2023-03-12T05:55:55.205Z,63958.41
2023-03-12T05:58:22.327Z,63958.41
2023-03-12T06:00:50.412Z,63958.41
2023-03-12T06:03:18.051Z,63958.41
2023-03-12T06:05:46.531Z,63958.41
2023-03-12T06:08:13.888Z,63958.41
2023-03-12T06:10:41.092Z,63958.41
2023-03-12T06:13:09.047Z,63958.41
2023-03-12T06:15:36.371Z,63958.41
2023-03-12T06:18:05.650Z,63958.41
2023-03-12T06:20:35.650Z,63958.41
2023-03-12T06:23:03.056Z,63958.41
2023-03-12T06:25:32.724Z,63958.41
2023-03-12T06:27:59.912Z,63958.41
2023-03-12T06:30:27.835Z,63958.41
2023-03-12T06:32:55.291Z,63958.41
2023-03-12T06:35:22.580Z,63958.41
2023-03-12T06:37:49.756Z,63958.41
2023-03-12T06:40:17.963Z,63958.41
2023-03-12T06:42:45.084Z,63958.41
2023-03-12T06:45:12.383Z,63958.41
2023-03-12T06:47:39.479Z,63958.41
2023-03-12T06:50:06.798Z,63958.41
2023-03-12T06:52:33.935Z,63958.41
2023-03-12T06:55:01.044Z,63958.41
2023-03-12T06:57:28.188Z,63958.41
2023-03-12T06:59:55.250Z,63958.41
2023-03-12T07:02:22.412Z,63958.41
2023-03-12T07:04:49.731Z,63958.41
2023-03-12T07:07:17.280Z,63958.41
2023-03-12T07:09:44.421Z,63958.41
2023-03-12T07:12:11.539Z,63958.41
2023-03-12T07:14:38.634Z,63958.41
2023-03-12T07:17:05.927Z,63958.41
2023-03-12T07:19:33.142Z,63958.41
2023-03-12T07:22:00.394Z,63958.41
2023-03-12T07:24:27.534Z,63958.41
2023-03-12T07:26:54.643Z,63958.41
2023-03-12T07:29:21.771Z,63958.41
2023-03-12T07:31:48.861Z,63958.41
2023-03-12T07:34:16.159Z,63958.41
2023-03-12T07:36:43.554Z,63958.41
2023-03-12T07:39:10.752Z,63958.41
2023-03-12T07:41:39.212Z,63958.41
2023-03-12T07:44:06.766Z,63958.41
2023-03-12T07:46:34.119Z,63958.41
2023-03-12T07:49:01.401Z,63958.41
2023-03-12T07:51:28.771Z,63958.41
2023-03-12T07:53:55.865Z,63958.41
2023-03-12T07:56:23.406Z,63958.41
2023-03-12T07:58:50.718Z,63958.41
2023-03-12T08:01:18.200Z,63958.41
2023-03-12T08:03:45.948Z,63958.41
2023-03-12T08:06:13.231Z,63958.41
2023-03-12T08:08:42.654Z,63958.41
2023-03-12T08:11:10.078Z,63958.41
2023-03-12T08:13:37.318Z,63958.41
2023-03-12T08:16:07.043Z,63958.41
2023-03-12T08:18:36.143Z,63958.41
2023-03-12T08:21:03.357Z,63958.41
2023-03-12T08:23:30.858Z,63958.41
2023-03-12T08:25:58.882Z,63958.41
2023-03-12T08:28:26.081Z,63958.41
2023-03-12T08:30:55.844Z,63958.41
2023-03-12T08:33:23.176Z,63958.41
2023-03-12T08:35:50.925Z,63958.41
2023-03-12T08:38:18.179Z,63958.41
2023-03-12T08:40:45.453Z,63958.41
2023-03-12T08:43:12.939Z,63958.41
2023-03-12T08:45:40.121Z,63958.41
2023-03-12T08:48:07.939Z,63958.41
2023-03-12T08:50:35.149Z,63958.41
2023-03-12T08:53:02.305Z,63958.41
2023-03-12T08:55:29.598Z,63958.41
2023-03-12T08:57:57.109Z,63958.41
2023-03-12T09:00:25.240Z,63958.41
2023-03-12T09:02:54.171Z,63958.41
2023-03-12T09:05:21.480Z,63958.41
2023-03-12T09:07:50.161Z,63958.41
2023-03-12T09:10:18.119Z,63958.41
2023-03-12T09:12:45.304Z,63958.41
2023-03-12T09:15:12.529Z,63958.41
2023-03-12T09:17:40.022Z,63958.41
2023-03-12T09:20:09.545Z,63958.41
2023-03-12T09:22:37.544Z,63958.41
2023-03-12T09:25:05.764Z,63958.41
2023-03-12T09:27:39.156Z,63958.41
2023-03-12T09:30:08.065Z,63958.41
2023-03-12T09:32:35.300Z,63958.41
2023-03-12T09:35:02.587Z,63958.41
2023-03-12T09:37:32.483Z,63958.41
2023-03-12T09:39:59.898Z,63958.41
2023-03-12T09:42:47.224Z,63958.41
2023-03-12T09:45:20.578Z,63958.41
2023-03-12T09:47:52.162Z,63958.41
2023-03-12T09:50:35.481Z,63958.41
2023-03-12T09:53:11.302Z,63958.41
2023-03-12T09:55:42.102Z,63958.41
2023-03-12T12:10:48.722Z,96600.97
2023-03-12T12:13:27.178Z,96599.03
2023-03-12T12:16:18.585Z,96604.31
2023-03-12T12:19:13.366Z,96628.63
2023-03-12T12:21:58.906Z,96637.09
2023-03-12T12:24:35.026Z,96652.72
2023-03-12T12:27:24.581Z,96657.53
2023-03-12T12:30:29.913Z,96678.00
2023-03-12T12:33:03.122Z,96683.16
2023-03-12T12:35:37.640Z,96698.34
2023-03-12T12:38:16.150Z,96704.47
2023-03-12T12:40:49.434Z,96697.41
2023-03-12T12:43:25.930Z,96720.88
2023-03-12T12:45:55.946Z,96723.91
2023-03-12T12:48:32.670Z,96723.25
2023-03-12T12:51:02.229Z,96734.75
2023-03-12T12:53:49.406Z,96750.44
2023-03-12T12:57:00.588Z,96756.81
2023-03-12T13:00:00.548Z,96760.19
2023-03-12T13:02:31.056Z,96758.00
2023-03-12T13:04:59.134Z,96758.09
2023-03-12T13:07:27.944Z,96766.53
2023-03-12T13:09:57.951Z,96777.47
2023-03-12T13:12:53.530Z,96755.44
2023-03-12T13:15:34.110Z,96792.13
2023-03-12T13:18:09.384Z,96796.06
2023-03-12T13:21:00.894Z,96806.69
2023-03-12T13:24:00.928Z,96803.44
2023-03-12T13:26:42.420Z,96789.66
2023-03-12T13:29:31.434Z,96826.56
2023-03-12T13:31:58.619Z,96828.69
2023-03-12T13:34:33.469Z,96841.94
2023-03-12T13:37:02.675Z,96859.66
2023-03-12T13:39:35.320Z,96838.59
2023-03-12T13:42:25.554Z,96870.03
2023-03-12T13:44:54.032Z,96880.41
2023-03-12T13:47:47.200Z,96872.63
2023-03-12T13:50:17.262Z,96887.97
2023-03-12T13:52:51.891Z,96907.75
2023-03-12T13:55:36.906Z,96899.03
2023-03-12T13:58:17.070Z,96911.00
2023-03-12T14:00:54.064Z,96919.75
2023-03-12T14:03:31.622Z,96917.81
2023-03-12T14:06:07.866Z,96918.75
2023-03-12T14:08:50.149Z,96912.94
2023-03-12T14:11:34.347Z,96933.13
2023-03-12T14:14:20.102Z,96956.44
2023-03-12T14:16:50.631Z,96966.47
2023-03-12T14:19:23.656Z,96957.75
2023-03-12T14:21:52.339Z,96962.09
2023-03-12T14:24:27.648Z,96963.72
2023-03-12T14:26:56.161Z,96984.91
2023-03-12T14:29:26.414Z,96994.94
2023-03-12T14:31:58.107Z,96991.69
2023-03-12T14:34:29.219Z,97003.03
2023-03-12T14:37:16.557Z,96999.78
2023-03-12T14:39:50.808Z,97024.00
2023-03-12T14:42:26.216Z,97025.47
2023-03-12T14:44:57.350Z,97029.88
2023-03-12T14:47:24.467Z,97031.78
2023-03-12T14:49:51.785Z,97043.63
2023-03-12T14:52:30.754Z,97033.94
2023-03-12T14:55:01.440Z,97059.59
2023-03-12T14:57:30.169Z,97071.94
2023-03-12T15:00:01.848Z,97084.25
2023-03-12T15:02:42.995Z,97094.13
2023-03-12T15:05:20.117Z,97109.53
2023-03-12T15:07:49.249Z,97114.81
2023-03-12T15:10:27.265Z,97111.94
2023-03-12T15:12:57.826Z,97124.72
2023-03-12T15:15:33.174Z,97120.25
2023-03-12T15:18:01.172Z,97121.56
2023-03-12T15:20:29.959Z,97137.72
2023-03-12T15:23:01.859Z,97136.06
2023-03-12T15:25:34.659Z,97167.63
2023-03-12T15:28:15.484Z,97155.84
2023-03-12T15:30:44.071Z,97203.41
2023-03-12T15:33:21.948Z,97212.13
2023-03-12T15:36:20.285Z,97241.94
2023-03-12T15:38:54.217Z,97235.31
2023-03-12T15:41:27.262Z,97251.53
2023-03-12T15:43:59.786Z,97264.84
2023-03-12T15:46:28.570Z,97281.81
2023-03-12T15:49:00.752Z,97278.09
2023-03-12T15:51:36.975Z,97290.66
2023-03-12T15:54:27.379Z,97307.19
2023-03-12T15:56:55.698Z,97304.25
2023-03-12T15:59:28.412Z,97328.41
2023-03-12T16:01:56.571Z,97342.38
2023-03-12T16:04:26.038Z,97349.13
2023-03-12T16:06:53.618Z,97364.91
2023-03-12T16:09:26.460Z,97361.81
2023-03-12T16:11:55.358Z,97373.56
2023-03-12T16:14:33.140Z,97382.75
2023-03-12T16:17:00.356Z,97395.63
2023-03-12T16:19:30.298Z,97390.94
2023-03-12T16:21:57.461Z,97387.03
2023-03-12T16:24:24.576Z,97401.94
2023-03-12T16:26:58.246Z,97409.09
2023-03-12T16:29:37.352Z,97425.09
2023-03-12T16:32:12.723Z,97444.91
2023-03-12T16:34:40.097Z,97447.41
2023-03-12T16:37:11.142Z,97449.03
2023-03-12T16:39:38.605Z,97461.69
2023-03-12T16:42:16.806Z,97476.31
2023-03-12T16:44:46.443Z,97495.38
2023-03-12T16:47:14.612Z,97518.09
2023-03-12T16:49:43.641Z,97518.16
2023-03-12T16:52:22.538Z,97532.88
2023-03-12T16:54:50.615Z,97551.94
2023-03-12T16:57:26.667Z,97558.00
2023-03-12T16:59:54.386Z,97560.47
2023-03-12T17:02:21.828Z,97580.84
2023-03-12T17:04:49.361Z,97580.59
2023-03-12T17:07:17.090Z,97584.66
2023-03-12T17:09:44.319Z,97583.28
2023-03-12T17:12:39.197Z,97602.28
2023-03-12T17:15:15.606Z,97608.13
2023-03-12T17:17:42.921Z,97623.63
2023-03-12T17:20:13.701Z,97607.50
2023-03-12T17:22:41.349Z,97634.38
2023-03-12T17:25:19.231Z,97627.88
2023-03-12T17:27:46.327Z,97658.88
2023-03-12T17:30:13.780Z,97652.63
2023-03-12T17:32:40.925Z,97636.56
2023-03-12T17:35:08.450Z,97668.69
2023-03-12T17:37:35.965Z,97665.97
2023-03-12T17:40:08.408Z,97658.88
2023-03-12T17:42:39.267Z,97687.44
2023-03-12T17:45:08.312Z,97707.13
2023-03-12T17:47:36.205Z,97715.72
2023-03-12T17:50:05.247Z,97712.19
2023-03-12T17:52:33.297Z,97735.03
2023-03-12T17:55:00.734Z,97736.00
2023-03-12T17:57:28.278Z,97741.41
2023-03-12T17:59:55.528Z,97732.47
2023-03-12T18:02:22.982Z,97740.47
2023-03-12T18:04:50.623Z,97743.06
2023-03-12T18:07:17.938Z,97731.50
2023-03-12T18:09:45.538Z,97728.22
2023-03-12T18:12:12.728Z,97752.31
2023-03-12T18:14:39.903Z,97765.94
2023-03-12T18:17:07.041Z,97776.94
2023-03-12T18:19:35.402Z,97775.84
2023-03-12T18:22:03.048Z,97796.63
2023-03-12T18:24:30.657Z,97821.28
2023-03-12T18:26:59.400Z,97804.66
2023-03-12T18:29:27.032Z,97812.25
2023-03-12T18:31:54.202Z,97839.66
2023-03-12T18:34:23.607Z,97831.34
2023-03-12T18:36:50.780Z,97819.06
2023-03-12T18:39:18.032Z,97828.88
2023-03-12T18:41:49.112Z,97837.00
2023-03-12T18:44:16.229Z,97840.53
2023-03-12T18:46:43.492Z,97860.09
2023-03-12T18:49:18.791Z,97859.06
2023-03-12T18:51:46.194Z,97874.16
2023-03-12T18:54:13.231Z,97885.28
2023-03-12T18:56:41.091Z,97869.19
2023-03-12T18:59:10.054Z,97887.50
2023-03-12T19:01:39.103Z,97906.41
2023-03-12T19:04:09.288Z,97907.72
2023-03-12T19:06:49.753Z,97907.81
2023-03-12T19:09:18.168Z,97947.81
2023-03-12T19:11:47.915Z,97943.44
2023-03-12T19:14:15.593Z,97961.44
2023-03-12T19:16:42.811Z,97962.81
2023-03-12T19:19:09.920Z,97959.03
2023-03-12T19:21:37.008Z,97972.13
2023-03-12T19:24:04.563Z,97962.50
2023-03-12T19:26:31.853Z,97955.28
2023-03-12T19:28:59.026Z,97992.25
2023-03-12T19:31:26.572Z,97992.66
2023-03-12T19:33:53.824Z,97991.88
2023-03-12T19:36:21.081Z,97999.13
2023-03-12T19:38:48.401Z,98005.91
2023-03-12T19:41:15.973Z,98015.59
2023-03-12T19:43:47.598Z,98019.69
2023-03-12T19:46:14.765Z,98029.97
2023-03-12T19:48:41.895Z,98031.06
2023-03-12T19:51:11.480Z,98036.97
2023-03-12T19:53:38.941Z,98036.66
2023-03-12T19:56:06.456Z,98052.78
2023-03-12T19:58:33.799Z,98050.16
2023-03-12T20:01:01.917Z,98062.03
2023-03-12T20:03:30.354Z,98070.50
2023-03-12T20:05:57.509Z,98085.66
2023-03-12T20:08:30.415Z,98091.66
2023-03-12T20:11:09.186Z,98097.25
2023-03-12T20:13:38.968Z,98092.78
2023-03-12T20:16:07.731Z,98088.50
2023-03-12T20:18:35.129Z,98061.22
2023-03-12T20:21:02.250Z,98092.59
2023-03-12T20:23:29.427Z,98103.84
2023-03-12T20:25:56.494Z,98108.78
2023-03-12T20:28:23.615Z,98108.06
2023-03-12T20:30:51.145Z,98115.56
2023-03-12T20:33:18.567Z,98109.19
2023-03-12T20:35:45.804Z,98122.81
2023-03-12T20:38:13.025Z,98125.41
2023-03-12T20:40:40.078Z,98127.91
2023-03-12T20:43:07.142Z,98130.81
2023-03-12T20:45:34.492Z,98132.81
2023-03-12T20:48:01.934Z,98135.97
2023-03-12T20:50:29.413Z,98137.72
2023-03-12T20:52:56.537Z,98146.47
2023-03-12T20:55:23.612Z,98161.47
2023-03-12T20:57:50.694Z,98156.59
2023-03-12T21:00:18.276Z,98155.16
2023-03-12T21:02:45.563Z,98159.41
2023-03-12T21:05:14.500Z,98162.13
2023-03-12T21:07:41.815Z,98183.47
2023-03-12T21:10:09.927Z,98184.53
2023-03-12T21:12:39.762Z,98191.13
2023-03-12T21:15:12.513Z,98198.38
2023-03-12T21:17:40.939Z,98197.44
2023-03-12T21:20:10.963Z,98198.97
2023-03-12T21:22:38.841Z,98206.38
2023-03-12T21:25:06.974Z,98198.34
2023-03-12T21:27:44.695Z,98210.81
2023-03-12T21:30:17.196Z,98208.22
2023-03-12T21:32:44.340Z,98211.31
2023-03-12T21:35:11.668Z,98222.25
2023-03-12T21:37:38.719Z,98216.59
2023-03-12T21:40:07.951Z,98228.69
2023-03-12T21:42:35.083Z,98234.88
2023-03-12T21:45:02.158Z,98239.94
2023-03-12T21:47:30.862Z,98240.19
2023-03-12T21:49:58.051Z,98246.03
2023-03-12T21:52:25.311Z,98247.47
2023-03-12T21:54:52.389Z,98259.19
2023-03-12T21:57:19.551Z,98259.88
2023-03-12T21:59:46.622Z,98240.16
2023-03-12T22:02:14.847Z,98263.72
2023-03-12T22:04:42.183Z,98258.00
2023-03-12T22:07:09.352Z,98279.81
2023-03-12T22:09:36.639Z,98289.91
2023-03-12T22:12:04.071Z,98293.44
2023-03-12T22:14:31.141Z,98290.97
2023-03-12T22:16:58.343Z,98302.47
2023-03-12T22:19:25.471Z,98291.78
2023-03-12T22:21:52.620Z,98304.09
2023-03-12T22:24:19.686Z,98311.00
2023-03-12T22:26:46.990Z,98297.63
2023-03-12T22:29:14.040Z,98327.22
2023-03-12T22:31:41.228Z,98333.28
2023-03-12T22:34:09.074Z,98325.25
2023-03-12T22:36:38.737Z,98337.25
2023-03-12T22:39:06.016Z,98346.16
2023-03-12T22:41:33.210Z,98351.69
2023-03-12T22:44:06.417Z,98363.28
2023-03-12T22:46:34.468Z,98365.63
2023-03-12T22:49:03.970Z,98378.53
2023-03-12T22:51:32.831Z,98378.94
2023-03-12T22:54:00.413Z,98373.75
2023-03-12T22:56:27.926Z,98372.41
2023-03-12T22:58:56.209Z,98372.69
2023-03-12T23:01:24.276Z,98387.25
2023-03-12T23:03:51.981Z,98386.19
2023-03-12T23:06:24.380Z,98386.44
2023-03-12T23:08:52.572Z,98402.91
2023-03-12T23:11:20.975Z,98398.19
2023-03-12T23:13:49.875Z,98381.13
2023-03-12T23:16:19.875Z,98412.41
2023-03-12T23:18:47.880Z,98413.31
2023-03-12T23:21:20.697Z,98416.06
2023-03-12T23:23:48.995Z,98417.75
2023-03-12T23:26:19.577Z,98414.19
2023-03-12T23:28:47.618Z,98419.88
2023-03-12T23:31:16.133Z,98422.19
2023-03-12T23:33:43.614Z,98415.69
2023-03-12T23:36:18.776Z,98428.28
2023-03-12T23:38:47.091Z,98436.03
2023-03-12T23:41:15.737Z,98432.81
2023-03-12T23:43:43.207Z,98444.50
2023-03-12T23:46:11.997Z,98439.38
2023-03-12T23:48:41.000Z,98444.84
2023-03-12T23:51:14.464Z,98454.91
2023-03-12T23:53:44.688Z,98454.47
2023-03-12T23:56:15.106Z,98460.06
2023-03-12T23:58:43.627Z,98460.75
